Terminal Aerodrome Forecast
Issued by NWS

Home | Current Version | Previous Version | Text Only | Print | Product List | Glossary On
Versions: 1 2 3 4 5 6 7 8 9 10 11 12 13
000
FTUS41 KCAR 241141
TAFHUL
TAF
KHUL 241141Z 2412/2512 27004KT P6SM SCT025
     FM241600 00000KT P6SM OVC025
     FM242300 00000KT 3SM -RA OVC015
     FM250300 VRB03KT 3SM -FZRA OVC003
     FM250800 04006KT 2SM -RA BR OVC007=

USA.gov is the U.S. government's official web portal to all federal, state and local government web resources and services.